Time;durP1;ratioP1;P1;durP2;ratioP2;P2;SDS_P1;SDS_P2;PMS_P1;PMS_P2;Temp;Humidity;BMP_temperature;BMP_pressure;BME280_temperature;BME280_humidity;BME280_pressure;Samples;Min_cycle;Max_cycle;Signal;HPM_P1;HPM_P2
2022/11/29 00:01:25;;;;;;;0.60;0.60;;;;;;;-5.90;91.06;101600.66;4955772;28;20058;-83
2022/11/29 00:03:53;;;;;;;0.60;0.60;;;;;;;-5.95;91.02;101585.19;4938532;29;20055;-83
2022/11/29 00:06:27;;;;;;;0.60;0.60;;;;;;;-5.97;91.09;101586.19;4938357;29;20446;-82
2022/11/29 00:08:56;;;;;;;0.75;0.75;;;;;;;-6.00;91.31;101581.03;4937192;29;20067;-83
2022/11/29 00:14:14;;;;;;;0.90;0.90;;;;;;;-5.99;91.46;101585.41;4938493;29;20518;-82
2022/11/29 00:16:42;;;;;;;0.68;0.68;;;;;;;-5.98;91.36;101587.09;4951725;29;20055;-82
2022/11/29 00:19:10;;;;;;;0.80;0.80;;;;;;;-5.94;91.49;101580.75;4952463;29;20063;-83
2022/11/29 00:21:38;;;;;;;0.70;0.70;;;;;;;-5.94;91.58;101572.88;4952098;29;20055;-82
2022/11/29 00:24:05;;;;;;;0.75;0.75;;;;;;;-5.88;91.56;101577.78;4952355;29;20070;-82
2022/11/29 00:26:32;;;;;;;0.65;0.65;;;;;;;-5.85;91.57;101579.41;4951940;28;20047;-82
2022/11/29 00:28:59;;;;;;;0.65;0.65;;;;;;;-5.97;91.48;101571.25;4951939;28;20059;-82
2022/11/29 00:31:29;;;;;;;0.80;0.80;;;;;;;-5.98;91.34;101576.56;4934359;29;20047;-82
2022/11/29 00:33:57;;;;;;;0.75;0.75;;;;;;;-6.01;91.63;101569.69;4953336;28;20142;-83
2022/11/29 00:36:25;;;;;;;0.68;0.68;;;;;;;-5.96;91.72;101567.69;4939320;29;20054;-82
2022/11/29 00:38:52;;;;;;;0.63;0.63;;;;;;;-5.97;91.50;101568.63;4955696;29;20106;-83
2022/11/29 00:41:19;;;;;;;0.70;0.70;;;;;;;-5.99;91.81;101569.63;4955619;29;20421;-83
2022/11/29 00:43:48;;;;;;;0.73;0.73;;;;;;;-6.00;91.63;101568.78;4954282;28;20058;-82
2022/11/29 00:46:15;;;;;;;0.57;0.57;;;;;;;-5.99;91.78;101565.19;4938791;29;20530;-82
2022/11/29 00:48:44;;;;;;;0.60;0.60;;;;;;;-6.00;91.74;101568.78;4956273;29;20130;-82
2022/11/29 00:51:11;;;;;;;0.70;0.70;;;;;;;-6.00;91.66;101568.78;4955981;29;20051;-83
2022/11/29 00:53:38;;;;;;;0.70;0.70;;;;;;;-6.01;91.78;101576.72;4955577;29;20098;-82
2022/11/29 00:56:06;;;;;;;0.70;0.70;;;;;;;-6.02;91.75;101573.25;4955570;28;20047;-83
2022/11/29 00:58:35;;;;;;;0.68;0.68;;;;;;;-5.96;91.85;101574.72;4938562;29;20051;-82
2022/11/29 01:01:02;;;;;;;0.57;0.57;;;;;;;-5.98;91.74;101569.53;4955441;29;20117;-82
2022/11/29 01:03:30;;;;;;;0.63;0.63;;;;;;;-5.99;91.93;101570.47;4954938;28;20055;-82
2022/11/29 01:06:03;;;;;;;0.50;0.50;;;;;;;-6.01;91.91;101571.47;4955355;29;20051;-82
2022/11/29 01:08:30;;;;;;;0.65;0.65;;;;;;;-6.00;91.68;101565.28;4937590;29;20130;-83
2022/11/29 01:11:16;;;;;;;0.70;0.70;;;;;;;-5.99;91.76;101577.50;4955111;28;20420;-82
2022/11/29 01:13:43;;;;;;;0.60;0.60;;;;;;;-6.01;91.80;101566.22;4954917;29;20533;-82
2022/11/29 01:16:13;;;;;;;0.60;0.60;;;;;;;-6.06;91.75;101566.44;4937903;29;20422;-82
2022/11/29 01:18:40;;;;;;;0.57;0.57;;;;;;;-6.10;91.94;101562.25;4954603;29;20058;-83
2022/11/29 01:21:11;;;;;;;0.70;0.70;;;;;;;-6.09;91.71;101561.31;4938152;29;20047;-82
2022/11/29 01:23:40;;;;;;;0.75;0.75;;;;;;;-6.06;91.72;101569.06;4954882;28;20141;-82
2022/11/29 01:26:10;;;;;;;0.70;0.70;;;;;;;-6.08;91.88;101565.66;4955041;29;20466;-82
2022/11/29 01:28:38;;;;;;;0.85;0.85;;;;;;;-6.15;91.56;101551.97;4921531;29;20510;-81
2022/11/29 01:31:15;;;;;;;0.70;0.70;;;;;;;-6.16;91.57;101560.75;4954931;29;20055;-81
2022/11/29 01:33:43;;;;;;;0.70;0.70;;;;;;;-6.17;91.73;101560.84;4916647;29;20076;-81
2022/11/29 01:36:12;;;;;;;0.77;0.77;;;;;;;-6.16;91.66;101563.38;4916674;29;20052;-81
2022/11/29 01:38:41;;;;;;;0.63;0.63;;;;;;;-6.11;91.87;101560.53;4916271;29;20059;-82
2022/11/29 01:41:16;;;;;;;0.60;0.60;;;;;;;-6.18;91.49;101562.63;4916824;29;20062;-83
2022/11/29 01:43:51;;;;;;;;;;;;;;;-6.28;91.55;101565.75;4917166;29;20052;-82
2022/11/29 01:46:32;;;;;;;0.80;0.80;;;;;;;-6.35;91.54;101562.59;4916024;29;19946;-84
2022/11/29 01:49:26;;;;;;;0.60;0.60;;;;;;;-6.34;91.56;101565.13;4915300;29;20503;-83
2022/11/29 01:51:58;;;;;;;0.80;0.80;;;;;;;-6.40;91.48;101562.81;4911631;29;20594;-83
2022/11/29 01:54:25;;;;;;;0.90;0.90;;;;;;;-6.41;91.68;101570.75;4916163;29;20080;-81
2022/11/29 01:56:53;;;;;;;0.80;0.80;;;;;;;-6.45;91.64;101569.22;4914550;29;20753;-81
2022/11/29 01:59:25;;;;;;;0.70;0.70;;;;;;;-6.44;91.80;101558.63;4915961;29;20078;-82
2022/11/29 02:01:52;;;;;;;0.88;0.88;;;;;;;-6.41;91.79;101568.13;4914456;29;20472;-82
2022/11/29 02:04:20;;;;;;;0.75;0.75;;;;;;;-6.45;91.76;101566.59;4915905;29;20147;-81
2022/11/29 02:06:47;;;;;;;0.63;0.63;;;;;;;-6.49;91.83;101568.50;4915580;29;20415;-82
2022/11/29 02:09:19;;;;;;;0.75;0.75;;;;;;;-6.50;91.88;101579.94;4914613;29;20392;-82
2022/11/29 02:11:48;;;;;;;0.70;0.70;;;;;;;-6.47;91.96;101579.78;4915482;29;20512;-82
2022/11/29 02:14:44;;;;;;;0.60;0.60;;;;;;;-6.50;91.82;101574.69;4915592;29;20428;-82
2022/11/29 02:17:29;;;;;;;0.63;0.63;;;;;;;-6.51;91.84;101587.88;4915978;29;20427;-81
2022/11/29 02:20:38;;;;;;;0.80;0.80;;;;;;;-6.52;91.54;101581.78;4914620;29;20063;-81
2022/11/29 02:23:23;;;;;;;0.60;0.60;;;;;;;-6.54;91.67;101575.75;4915665;29;20052;-82
2022/11/29 02:26:21;;;;;;;0.80;0.80;;;;;;;-6.61;91.69;101576.94;4929983;29;20056;-81
2022/11/29 02:29:10;;;;;;;0.93;0.93;;;;;;;-6.58;91.73;101572.41;4915380;29;20410;-80
2022/11/29 02:32:15;;;;;;;0.88;0.88;;;;;;;-6.55;91.62;101585.41;4919555;28;20604;-82
2022/11/29 02:35:13;;;;;;;0.77;0.77;;;;;;;-6.61;91.50;101577.81;4936050;29;20150;-81
2022/11/29 02:37:59;;;;;;;0.70;0.70;;;;;;;-6.66;91.22;101584.19;4953048;29;20813;-81
2022/11/29 02:40:26;;;;;;;0.80;0.80;;;;;;;-6.66;91.41;101585.06;4952190;29;20142;-82
2022/11/29 02:43:15;;;;;;;0.60;0.60;;;;;;;-6.64;91.37;101580.56;4953010;29;20055;-82
2022/11/29 02:46:02;;;;;;;0.70;0.70;;;;;;;-6.65;91.20;101576.25;4953473;29;20522;-82
2022/11/29 02:48:46;;;;;;;0.68;0.68;;;;;;;-6.66;91.02;101584.19;4920400;29;20463;-81
2022/11/29 02:51:21;;;;;;;0.68;0.68;;;;;;;-6.67;91.13;101575.47;4951893;29;20149;-81
2022/11/29 02:53:57;;;;;;;0.93;0.93;;;;;;;-6.66;90.67;101585.06;4953191;29;20515;-82
2022/11/29 02:56:27;;;;;;;0.90;0.90;;;;;;;-6.66;90.76;101571.94;4953193;29;20051;-83
2022/11/29 02:59:26;;;;;;;0.70;0.70;;;;;;;-6.64;91.01;101580.56;4952883;29;20055;-82
2022/11/29 03:02:27;;;;;;;0.80;0.80;;;;;;;-6.60;90.84;101587.38;4935416;29;20059;-84
2022/11/29 03:04:59;;;;;;;0.68;0.68;;;;;;;-6.62;90.75;101581.34;4958477;28;20065;-83
2022/11/29 03:07:57;;;;;;;0.90;0.90;;;;;;;-6.69;90.55;101582.56;4961223;28;20055;-83
2022/11/29 03:10:47;;;;;;;0.80;0.80;;;;;;;-6.67;90.48;101583.34;4943960;28;20063;-83
2022/11/29 03:13:39;;;;;;;0.80;0.80;;;;;;;-6.67;90.26;101572.84;4962256;28;20057;-83
2022/11/29 03:16:07;;;;;;;0.80;0.80;;;;;;;-6.74;90.13;101576.66;4952413;28;20051;-84
2022/11/29 03:18:54;;;;;;;0.85;0.85;;;;;;;-6.75;90.29;101574.97;4959710;28;20065;-84
2022/11/29 03:21:21;;;;;;;0.70;0.70;;;;;;;-6.81;90.03;101575.22;4961403;28;20055;-85
2022/11/29 03:23:51;;;;;;;0.80;0.80;;;;;;;-6.84;89.91;101585.88;4953622;28;20082;-83
2022/11/29 03:26:31;;;;;;;0.73;0.73;;;;;;;-6.83;89.99;101587.59;4942281;28;20047;-84
2022/11/29 03:29:11;;;;;;;0.82;0.82;;;;;;;-6.82;90.08;101589.28;4948565;28;20121;-84
2022/11/29 03:31:53;;;;;;;0.80;0.80;;;;;;;-6.80;89.84;101595.34;4964808;28;20094;-84
2022/11/29 03:34:31;;;;;;;0.70;0.70;;;;;;;-6.77;90.05;101601.28;4967448;28;20097;-83
2022/11/29 03:37:07;;;;;;;1.00;1.00;;;;;;;-6.78;89.94;101606.63;4964977;28;20143;-83
2022/11/29 03:39:43;;;;;;;0.85;0.85;;;;;;;-6.74;89.85;101600.28;4943626;29;20060;-83
2022/11/29 03:42:16;;;;;;;0.80;0.80;;;;;;;-6.73;90.00;101595.88;4964469;28;20143;-82
2022/11/29 03:44:57;;;;;;;0.85;0.85;;;;;;;-6.80;89.65;101597.97;4953945;28;20077;-83
2022/11/29 03:47:35;;;;;;;0.70;0.70;;;;;;;-6.79;89.76;101602.28;4959520;28;20051;-84
2022/11/29 03:50:06;;;;;;;0.77;0.77;;;;;;;-6.74;89.93;101605.53;4944219;28;20050;-83
2022/11/29 03:52:48;;;;;;;0.70;0.70;;;;;;;-6.76;89.50;101600.38;4962208;28;20109;-84
2022/11/29 03:55:32;;;;;;;0.75;0.75;;;;;;;-6.81;89.45;101606.75;4971824;28;20051;-83
2022/11/29 03:58:16;;;;;;;0.85;0.85;;;;;;;-6.85;89.40;101602.56;4943977;28;20051;-84
2022/11/29 04:00:47;;;;;;;0.90;0.90;;;;;;;-6.89;89.35;101608.88;4958653;29;20065;-84
2022/11/29 04:03:50;;;;;;;0.75;0.75;;;;;;;-6.94;89.18;101611.69;4975261;28;20524;-84
2022/11/29 04:06:29;;;;;;;0.90;0.90;;;;;;;-7.01;89.59;101615.53;4952568;28;20047;-84
2022/11/29 04:09:14;;;;;;;0.90;0.90;;;;;;;-6.94;89.62;101616.09;4960045;28;20101;-84
2022/11/29 04:15:19;;;;;;;0.82;0.82;;;;;;;-6.94;89.55;101616.09;4919589;29;20058;-83
2022/11/29 04:17:58;;;;;;;0.90;0.90;;;;;;;-6.94;89.19;101606.44;4913415;29;20683;-83
2022/11/29 04:20:47;;;;;;;0.82;0.82;;;;;;;-6.92;89.41;101614.25;4918294;29;20048;-83
2022/11/29 04:23:45;;;;;;;0.70;0.70;;;;;;;-7.00;89.25;101606.72;4905654;29;20078;-82
2022/11/29 04:26:37;;;;;;;0.98;0.98;;;;;;;-7.04;89.18;101607.78;4889927;29;20127;-86
2022/11/29 04:29:10;;;;;;;0.60;0.60;;;;;;;-7.13;89.05;101611.66;4909958;29;20196;-85
2022/11/29 04:31:46;;;;;;;0.80;0.80;;;;;;;-7.08;89.02;101612.31;4902771;29;20799;-85
2022/11/29 04:34:30;;;;;;;0.80;0.80;;;;;;;-7.10;89.12;101613.31;4879460;29;20052;-86
2022/11/29 04:36:57;;;;;;;0.70;0.70;;;;;;;-7.08;89.32;101614.94;4885668;29;20084;-85
2022/11/29 04:39:54;;;;;;;0.60;0.60;;;;;;;-7.03;89.30;101614.75;4912575;29;20052;-81
2022/11/29 04:42:36;;;;;;;0.90;0.90;;;;;;;-6.97;89.44;101612.69;4855571;29;20058;-86
2022/11/29 04:45:31;;;;;;;0.82;0.82;;;;;;;-6.99;89.19;101621.53;4843162;29;20053;-83
2022/11/29 04:48:32;;;;;;;0.80;0.80;;;;;;;-7.03;89.05;101622.63;4847180;29;20458;-84
2022/11/29 04:51:01;;;;;;;0.88;0.88;;;;;;;-7.04;88.94;101629.66;4850614;29;20529;-82
2022/11/29 04:53:48;;;;;;;0.93;0.93;;;;;;;-7.06;88.64;101628.88;4902773;29;20056;-83
2022/11/29 04:56:32;;;;;;;0.73;0.73;;;;;;;-7.18;88.63;101631.16;4910491;29;20392;-83
2022/11/29 04:59:18;;;;;;;0.77;0.77;;;;;;;-7.19;88.54;101638.16;4905926;29;20412;-84
2022/11/29 05:02:04;;;;;;;0.60;0.60;;;;;;;-7.21;88.37;101648.75;4904444;29;20048;-84
2022/11/29 05:05:04;;;;;;;0.60;0.60;;;;;;;-7.20;88.60;101652.22;4863709;29;20052;-85
2022/11/29 05:07:49;;;;;;;0.60;0.60;;;;;;;-7.18;88.48;101660.03;4894691;29;20079;-86
2022/11/29 05:10:28;;;;;;;0.95;0.95;;;;;;;-7.15;88.65;101665.16;4892666;29;20139;-85
2022/11/29 05:13:08;;;;;;;0.80;0.80;;;;;;;-7.14;88.57;101667.72;4919904;29;20051;-83
2022/11/29 05:15:47;;;;;;;0.95;0.95;;;;;;;-7.10;88.48;101671.91;4924981;29;20048;-85
2022/11/29 05:18:51;;;;;;;1.05;1.05;;;;;;;-7.12;88.08;101673.72;4907288;28;20102;-82
2022/11/29 05:21:44;;;;;;;0.75;0.75;;;;;;;-7.09;88.19;101681.50;4946144;28;20050;-83
2022/11/29 05:24:38;;;;;;;1.00;1.00;;;;;;;-7.03;88.14;101678.59;4955681;28;20054;-83
2022/11/29 05:27:17;;;;;;;0.73;0.73;;;;;;;-7.03;88.06;101665.47;4933456;29;20106;-81
2022/11/29 05:30:39;;;;;;;1.00;1.00;;;;;;;-7.04;87.84;101676.03;4948656;28;20063;-82
2022/11/29 05:34:15;;;;;;;0.88;0.88;;;;;;;-7.12;87.45;101671.13;4946585;28;20070;-80
2022/11/29 05:37:38;;;;;;;0.77;0.77;;;;;;;-7.16;87.34;101674.81;4955010;28;20054;-82
2022/11/29 05:45:50;;;;;;;0.85;0.85;;;;;;;-7.07;87.14;101684.88;4874973;29;20449;-80
2022/11/29 05:48:51;;;;;;;1.00;1.00;;;;;;;-7.11;86.76;101698.25;4872487;29;20124;-82
2022/11/29 05:52:23;;;;;;;0.80;0.80;;;;;;;-7.17;86.73;101691.44;4852762;29;20478;-80
2022/11/29 05:55:32;;;;;;;0.90;0.90;;;;;;;-7.22;86.77;101691.63;4819460;29;20080;-81
2022/11/29 06:05:45;;;;;;;1.00;1.00;;;;;;;-7.32;85.64;101681.59;4770176;29;20054;-79
2022/11/29 06:08:45;;;;;;;1.02;1.02;;;;;;;-7.33;85.45;101693.03;4739874;30;20060;-80
2022/11/29 06:11:45;;;;;;;0.80;0.80;;;;;;;-7.28;85.38;101698.94;4757459;30;20455;-80
2022/11/29 06:14:39;;;;;;;0.98;0.98;;;;;;;-7.32;85.23;101697.34;4744002;30;20056;-79
2022/11/29 06:17:29;;;;;;;1.05;1.05;;;;;;;-7.35;84.88;101694.84;4698881;23;10002412;-80
2022/11/29 06:31:33;;;;;;;0.90;0.90;;;;;;;-7.42;84.22;101724.00;4896174;29;20219;-79
2022/11/29 06:34:16;;;;;;;0.95;0.95;;;;;;;-7.45;83.97;101718.84;4912069;29;20060;-78
2022/11/29 06:37:11;;;;;;;0.80;0.80;;;;;;;-7.49;83.71;101724.31;4896105;29;20052;-80
2022/11/29 06:39:51;;;;;;;1.00;1.00;;;;;;;-7.51;83.93;101726.97;4911866;29;20539;-82
2022/11/29 06:43:01;;;;;;;0.80;0.80;;;;;;;-7.43;83.74;101731.91;4905392;29;20489;-86
2022/11/29 06:46:22;;;;;;;1.30;1.20;;;;;;;-7.42;83.74;101730.97;4949575;29;20834;-79
2022/11/29 06:53:45;;;;;;;0.80;0.80;;;;;;;-7.38;83.09;101735.19;4874492;29;20067;-81
2022/11/29 06:57:16;;;;;;;0.90;0.90;;;;;;;-7.35;82.96;101737.69;4858875;29;20133;-80
2022/11/29 07:00:22;;;;;;;1.00;1.00;;;;;;;-7.41;82.80;101725.69;4856106;29;20061;-80
2022/11/29 07:04:00;;;;;;;;;;;;;;;;;;;;;
2022/11/29 07:07:02;;;;;;;0.90;0.90;;;;;;;-7.57;82.58;101731.59;4819467;29;20067;-80
2022/11/29 07:10:16;;;;;;;1.00;1.00;;;;;;;-7.54;82.91;101736.75;4773040;30;20539;-81
2022/11/29 07:13:06;;;;;;;;;;;;;;;-7.50;82.92;101731.28;4783331;30;20103;-80
2022/11/29 07:16:57;;;;;;;1.10;1.10;;;;;;;-7.48;82.49;101732.09;4765981;30;19929;-80
2022/11/29 07:20:16;;;;;;;0.95;0.95;;;;;;;-7.53;82.29;101747.16;4754023;30;20050;-80
2022/11/29 07:31:38;;;;;;;0.95;0.95;;;;;;;-7.57;81.58;101748.22;4390952;27;20329171;-82
2022/11/29 07:35:16;;;;;;;1.00;1.00;;;;;;;-7.57;81.99;101742.09;5054663;28;20060;-82
2022/11/29 07:38:35;;;;;;;0.93;0.93;;;;;;;-7.48;81.56;101753.06;5013458;28;20083;-81
2022/11/29 07:41:11;;;;;;;0.95;0.95;;;;;;;-7.55;81.22;101748.97;5039825;28;20091;-82
2022/11/29 07:43:53;;;;;;;0.90;0.90;;;;;;;-7.60;81.23;101742.22;5023287;28;20719;-83
2022/11/29 07:46:20;;;;;;;1.10;1.10;;;;;;;-7.52;81.30;101746.25;5038104;28;20115;-81
2022/11/29 07:48:47;;;;;;;0.98;0.98;;;;;;;-7.55;80.87;101751.59;5010887;28;20058;-81
2022/11/29 07:51:14;;;;;;;0.70;0.70;;;;;;;-7.52;80.90;101756.75;5041047;28;20057;-82
2022/11/29 07:53:43;;;;;;;1.00;1.00;;;;;;;-7.45;80.67;101752.09;5006308;28;20049;-82
2022/11/29 07:56:11;;;;;;;1.00;1.00;;;;;;;-7.51;80.49;101742.72;5031536;28;20045;-82
2022/11/29 07:58:39;;;;;;;0.90;0.90;;;;;;;-7.56;80.56;101744.66;5020257;28;20049;-81
2022/11/29 08:01:06;;;;;;;1.02;1.02;;;;;;;-7.54;80.54;101748.09;5033347;28;20084;-82
2022/11/29 08:03:36;;;;;;;0.90;0.90;;;;;;;-7.41;80.32;101749.28;5027325;28;20077;-83
2022/11/29 08:06:03;;;;;;;1.10;1.10;;;;;;;-7.32;79.96;101745.44;5027642;28;20056;-82
2022/11/29 08:08:30;;;;;;;1.13;1.10;;;;;;;-7.26;79.57;101752.22;5056356;28;20062;-82
2022/11/29 08:10:57;;;;;;;0.85;0.85;;;;;;;-7.26;79.42;101750.44;5092442;28;20152;-83
2022/11/29 08:13:25;;;;;;;0.80;0.80;;;;;;;-7.22;79.54;101749.38;5102380;28;20525;-83
2022/11/29 08:15:52;;;;;;;0.90;0.90;;;;;;;-7.11;79.35;101748.97;5111436;28;20055;-82
2022/11/29 08:18:19;;;;;;;0.85;0.85;;;;;;;-7.11;78.82;101758.59;5112026;28;20074;-83
2022/11/29 08:20:46;;;;;;;0.95;0.95;;;;;;;-7.19;78.85;101743.16;5112011;28;20050;-83
2022/11/29 08:23:13;;;;;;;0.70;0.70;;;;;;;-7.13;78.65;101756.03;5110385;28;20064;-83
2022/11/29 08:25:41;;;;;;;0.70;0.70;;;;;;;-7.08;78.72;101745.34;5112357;27;20047;-81
2022/11/29 08:28:08;;;;;;;0.90;0.90;;;;;;;-7.08;78.42;101748.81;5113072;28;20047;-82
2022/11/29 08:30:35;;;;;;;0.75;0.75;;;;;;;-6.97;78.34;101751.00;5101984;28;20125;-83
2022/11/29 08:33:03;;;;;;;1.00;1.00;;;;;;;-7.01;77.97;101744.19;5102534;28;20402;-80
2022/11/29 08:35:30;;;;;;;0.90;0.90;;;;;;;-7.10;77.66;101755.06;5108197;28;20138;-81
2022/11/29 08:37:57;;;;;;;0.77;0.77;;;;;;;-7.05;77.56;101743.44;5120126;27;20060;-80
2022/11/29 08:40:24;;;;;;;1.10;1.10;;;;;;;-6.89;77.08;101746.25;5101590;28;20058;-80
2022/11/29 08:42:56;;;;;;;0.93;0.93;;;;;;;-6.88;76.61;101744.50;5089614;28;20044;-81
2022/11/29 08:45:23;;;;;;;0.90;0.90;;;;;;;-6.79;76.38;101742.31;5097322;28;20051;-81
2022/11/29 08:47:50;;;;;;;0.88;0.88;;;;;;;-6.73;76.05;101751.72;5097139;28;20074;-83
2022/11/29 08:50:17;;;;;;;0.80;0.80;;;;;;;-6.71;75.96;101752.50;5100232;28;20052;-81
2022/11/29 08:55:45;;;;;;;1.08;1.08;;;;;;;-6.90;75.03;101738.47;5113027;28;20048;-83
2022/11/29 08:58:14;;;;;;;1.00;1.00;;;;;;;-6.97;75.13;101746.59;5105789;28;20108;-82
2022/11/29 09:00:44;;;;;;;0.85;0.85;;;;;;;-6.98;75.31;101750.16;5106566;28;20108;-80
2022/11/29 09:05:58;;;;;;;0.90;0.90;;;;;;;-6.92;74.55;101748.19;5109139;28;20142;-82
2022/11/29 09:08:26;;;;;;;0.90;0.90;;;;;;;-6.72;75.03;101752.56;5109578;28;20047;-81
2022/11/29 09:10:54;;;;;;;0.80;0.80;;;;;;;-6.61;74.74;101751.22;5109558;28;20158;-86
2022/11/29 09:13:21;;;;;;;0.90;0.90;;;;;;;-6.52;74.77;101752.56;5093118;28;20040;-85
2022/11/29 09:15:49;;;;;;;0.70;0.70;;;;;;;-6.38;74.28;101749.31;5109258;28;20040;-90
2022/11/29 09:18:16;;;;;;;0.77;0.77;;;;;;;-6.44;74.26;101747.81;5080113;28;20134;-87
2022/11/29 09:20:48;;;;;;;0.90;0.90;;;;;;;-6.26;73.87;101747.91;5113103;28;20055;-83
2022/11/29 09:23:22;;;;;;;0.88;0.88;;;;;;;-6.35;73.32;101750.03;5110337;28;20043;-83
2022/11/29 09:25:50;;;;;;;1.05;1.05;;;;;;;-6.17;73.41;101753.63;5111324;28;20532;-83
2022/11/29 09:28:16;;;;;;;0.80;0.80;;;;;;;-6.05;72.90;101749.59;5113118;28;20077;-84
2022/11/29 09:30:43;;;;;;;0.82;0.82;;;;;;;-6.06;73.05;101747.84;5118493;28;20119;-84
2022/11/29 09:33:14;;;;;;;0.88;0.88;;;;;;;-6.11;72.75;101740.16;5092828;28;20048;-85
2022/11/29 09:35:42;;;;;;;0.70;0.70;;;;;;;-6.15;73.08;101738.63;5093060;28;20055;-84
2022/11/29 09:38:13;;;;;;;0.90;0.90;;;;;;;-6.08;72.55;101743.59;5075136;28;20052;-85
2022/11/29 09:40:52;;;;;;;0.70;0.70;;;;;;;-6.06;72.51;101741.75;5106156;28;20137;-86
2022/11/29 09:43:33;;;;;;;0.95;0.95;;;;;;;-5.93;72.05;101735.81;5109515;28;20052;-82
2022/11/29 09:46:53;;;;;;;0.98;0.98;;;;;;;-5.57;71.47;101737.63;5112509;27;20134;-82
2022/11/29 09:49:36;;;;;;;0.98;0.98;;;;;;;-5.49;70.39;101732.00;5045823;28;20076;-85
2022/11/29 09:52:27;;;;;;;0.90;0.90;;;;;;;-5.55;70.66;101717.34;5044833;28;20053;-83
2022/11/29 09:55:09;;;;;;;0.80;0.80;;;;;;;-5.55;70.90;101730.50;5038440;28;20494;-84
2022/11/29 09:57:37;;;;;;;0.80;0.80;;;;;;;-5.63;71.08;101727.38;5032933;28;20059;-84
2022/11/29 10:00:09;;;;;;;0.77;0.77;;;;;;;-5.77;70.96;101719.28;5047448;28;20542;-83
2022/11/29 10:02:44;;;;;;;0.85;0.85;;;;;;;-5.74;70.86;101727.91;5026200;28;20045;-82
2022/11/29 10:05:18;;;;;;;0.80;0.80;;;;;;;-5.89;70.92;101729.47;5031970;28;20041;-82
2022/11/29 10:07:50;;;;;;;0.75;0.75;;;;;;;-5.80;71.28;101728.19;5032467;28;20045;-83
2022/11/29 10:10:21;;;;;;;0.80;0.80;;;;;;;-5.65;71.01;101729.25;5048431;28;20144;-82
2022/11/29 10:12:52;;;;;;;0.80;0.80;;;;;;;-5.67;70.69;101720.59;5030735;28;20095;-83
2022/11/29 10:15:26;;;;;;;0.80;0.80;;;;;;;-5.67;70.83;101724.06;5032118;28;20055;-82
2022/11/29 10:18:11;;;;;;;0.90;0.90;;;;;;;-5.67;70.75;101717.97;5032144;28;20118;-83
2022/11/29 10:20:40;;;;;;;0.90;0.90;;;;;;;-5.59;70.90;101707.91;5031715;28;20057;-83
2022/11/29 10:23:32;;;;;;;0.70;0.70;;;;;;;-5.39;70.81;101721.84;5033107;28;20060;-82
2022/11/29 10:25:59;;;;;;;0.77;0.77;;;;;;;-5.51;70.36;101715.44;5050913;27;20069;-83
2022/11/29 10:28:32;;;;;;;0.80;0.80;;;;;;;-5.42;70.56;101720.22;5101187;28;20055;-82
2022/11/29 10:31:07;;;;;;;0.70;0.70;;;;;;;-5.41;70.73;101714.06;5096638;28;20104;-83
2022/11/29 10:33:36;;;;;;;0.73;0.73;;;;;;;-5.35;70.43;101713.72;5096703;28;20513;-82
2022/11/29 10:36:11;;;;;;;0.80;0.80;;;;;;;-5.13;70.07;101716.16;5110816;28;20043;-83
2022/11/29 10:38:38;;;;;;;0.90;0.90;;;;;;;-5.08;69.86;101714.16;5102420;28;20202;-83
2022/11/29 10:41:13;;;;;;;0.80;0.80;;;;;;;-5.03;69.72;101719.19;5111178;28;20048;-82
2022/11/29 10:43:41;;;;;;;0.80;0.80;;;;;;;-5.07;69.68;101707.94;5110115;28;20052;-83
2022/11/29 10:46:14;;;;;;;0.90;0.90;;;;;;;-5.08;69.57;101718.56;5109039;28;20138;-82
2022/11/29 10:48:41;;;;;;;0.90;0.90;;;;;;;-4.98;69.59;101717.16;5102435;28;20075;-83
2022/11/29 10:51:16;;;;;;;0.77;0.77;;;;;;;-4.95;69.42;101708.25;5089121;28;20422;-83
2022/11/29 10:53:44;;;;;;;0.80;0.80;;;;;;;-4.87;69.31;101706.91;5102621;28;20138;-83
2022/11/29 10:56:21;;;;;;;0.85;0.85;;;;;;;-4.72;68.93;101713.19;5111348;28;20104;-83
2022/11/29 10:59:06;;;;;;;0.80;0.80;;;;;;;-4.56;68.13;101713.22;5106633;28;20058;-83
2022/11/29 11:01:40;;;;;;;0.98;0.98;;;;;;;-4.45;68.02;101715.31;5109316;28;20044;-83
2022/11/29 11:04:24;;;;;;;1.00;1.00;;;;;;;-4.43;67.94;101716.94;5110903;28;20047;-83
2022/11/29 11:06:56;;;;;;;0.70;0.70;;;;;;;-4.40;67.87;101706.22;5110409;28;20047;-82
2022/11/29 11:09:32;;;;;;;0.85;0.85;;;;;;;-4.56;67.94;101702.69;5107079;28;20120;-83
2022/11/29 11:12:03;;;;;;;0.80;0.80;;;;;;;-4.61;68.17;101710.84;5085750;28;20148;-83
2022/11/29 11:14:36;;;;;;;0.73;0.73;;;;;;;-4.66;67.86;101707.59;5073501;28;20498;-83
2022/11/29 11:17:25;;;;;;;0.80;0.80;;;;;;;-4.85;68.30;101710.31;5106549;28;20051;-84
2022/11/29 11:20:03;;;;;;;0.70;0.70;;;;;;;-5.01;68.36;101701.53;5097008;28;20040;-84
2022/11/29 11:22:31;;;;;;;0.80;0.80;;;;;;;-5.17;68.58;101703.22;5109125;28;20138;-84
2022/11/29 11:25:03;;;;;;;0.90;0.90;;;;;;;-5.23;69.06;101705.22;5104674;28;20047;-84
2022/11/29 11:27:33;;;;;;;0.80;0.80;;;;;;;-5.04;69.17;101704.28;5108727;28;20092;-84
2022/11/29 11:30:01;;;;;;;0.90;0.90;;;;;;;-5.05;68.85;101710.50;5109259;28;20051;-84
2022/11/29 11:32:28;;;;;;;0.82;0.82;;;;;;;-4.97;68.57;101703.06;5107601;28;20079;-84
2022/11/29 11:34:57;;;;;;;0.80;0.80;;;;;;;-4.87;68.43;101709.56;5110839;28;20076;-83
2022/11/29 11:37:29;;;;;;;0.80;0.80;;;;;;;-4.90;67.95;101709.72;5108865;28;20051;-84
2022/11/29 11:40:18;;;;;;;0.80;0.80;;;;;;;-4.90;68.42;101709.72;5104506;28;20131;-84
2022/11/29 11:42:45;;;;;;;0.90;0.90;;;;;;;-4.87;68.43;101709.56;5035007;28;20072;-84
2022/11/29 11:45:12;;;;;;;0.85;0.85;;;;;;;-4.94;68.40;101707.31;5019398;28;20499;-87
2022/11/29 11:47:52;;;;;;;0.88;0.88;;;;;;;-4.98;68.69;101714.53;5030297;28;20057;-83
2022/11/29 11:50:42;;;;;;;0.85;0.85;;;;;;;-5.03;68.73;101719.19;5028047;28;20454;-83
2022/11/29 11:53:34;;;;;;;1.00;1.00;;;;;;;-5.14;68.91;101716.22;5028398;28;20073;-83
2022/11/29 11:56:09;;;;;;;0.80;0.80;;;;;;;-5.20;69.34;101711.28;5033440;28;20072;-83
2022/11/29 11:58:40;;;;;;;0.80;0.80;;;;;;;-5.17;69.64;101716.38;5013320;28;20049;-83
2022/11/29 12:01:18;;;;;;;0.95;0.95;;;;;;;-5.19;69.65;101720.88;5027885;28;20073;-82
2022/11/29 12:04:02;;;;;;;0.80;0.80;;;;;;;-5.11;69.59;101722.22;5011897;28;20079;-82
2022/11/29 12:06:48;;;;;;;0.80;0.80;;;;;;;-5.28;69.46;101724.81;5017859;28;20068;-83
2022/11/29 12:09:22;;;;;;;0.90;0.90;;;;;;;-5.47;69.66;101724.84;5048163;28;20061;-81
2022/11/29 12:12:18;;;;;;;0.85;0.85;;;;;;;-5.47;70.37;101719.59;5052148;28;20052;-84
2022/11/29 12:14:54;;;;;;;0.80;0.80;;;;;;;-5.15;70.19;101725.06;4987345;28;20097;-84
2022/11/29 12:17:39;;;;;;;0.80;0.80;;;;;;;-4.78;69.45;101721.41;4975678;28;20046;-84
2022/11/29 12:20:06;;;;;;;0.80;0.80;;;;;;;-4.63;68.57;101722.41;5019808;28;20087;-83
2022/11/29 12:22:38;;;;;;;0.90;0.90;;;;;;;-4.70;68.53;101724.50;5070630;28;20498;-83
2022/11/29 12:25:17;;;;;;;0.70;0.70;;;;;;;-4.77;68.38;101724.91;5043502;28;20126;-82
2022/11/29 12:27:51;;;;;;;0.63;0.63;;;;;;;-4.83;68.46;101713.75;5062064;28;20049;-82
2022/11/29 12:30:19;;;;;;;0.80;0.80;;;;;;;-4.86;68.30;101721.81;5064106;28;20055;-81
2022/11/29 12:32:46;;;;;;;0.80;0.80;;;;;;;-5.13;68.74;101728.47;5062319;28;20051;-83
2022/11/29 12:35:44;;;;;;;1.08;1.08;;;;;;;-5.23;69.72;101728.94;5063305;28;20049;-84
2022/11/29 12:38:32;;;;;;;0.80;0.80;;;;;;;-5.38;69.79;101731.47;5073833;28;20122;-84
2022/11/29 12:41:28;;;;;;;0.80;0.80;;;;;;;-5.66;70.48;101725.75;5042658;28;20056;-83
2022/11/29 12:44:15;;;;;;;0.75;0.75;;;;;;;-5.86;71.26;101733.75;4711719;28;9999611;-82
2022/11/29 12:46:48;;;;;;;0.80;0.80;;;;;;;-6.07;72.04;101734.78;5067371;28;20106;-82
2022/11/29 12:49:39;;;;;;;;;;;;;;;-6.42;72.57;101738.09;5054222;28;20107;-83
2022/11/29 12:52:15;;;;;;;0.80;0.80;;;;;;;-6.77;73.33;101742.25;5053762;28;20333;-83
2022/11/29 12:55:03;;;;;;;0.70;0.70;;;;;;;-7.09;74.49;101730.50;5108977;28;20051;-82
2022/11/29 12:57:33;;;;;;;0.80;0.80;;;;;;;-7.31;75.06;101741.06;5095342;28;20607;-83
2022/11/29 13:00:10;;;;;;;0.73;0.73;;;;;;;-7.58;76.01;101737.78;5109680;28;20059;-82
2022/11/29 13:03:02;;;;;;;0.68;0.68;;;;;;;-7.75;76.67;101733.19;5092107;28;20043;-83
2022/11/29 13:06:06;;;;;;;1.00;1.00;;;;;;;-7.99;77.25;101743.72;5108276;28;20091;-82
2022/11/29 13:08:42;;;;;;;0.90;0.90;;;;;;;-8.16;77.72;101743.50;5081723;28;20044;-83
2022/11/29 13:11:28;;;;;;;0.85;0.85;;;;;;;-8.25;78.40;101738.59;5102977;28;20047;-82
2022/11/29 13:14:24;;;;;;;0.93;0.93;;;;;;;-8.38;78.86;101731.22;5090109;28;20047;-82